Flight Track Log - Related Links

Times and Time Zones

All times are in EDT time to prevent confusion due to time zone crossing. See the SKW5564 flight status page for this flight to view local times or setup timezone preferences in your user account.

Time Position Orientation Groundspeed Altitude Reporting Facility
EDT Latitude Longitude Course Direction KTS MPH feet Rate Location/Type
Sun 09:15:00 AM 33.8742 -84.9951 297° West  Level Estimated
Sun 09:16:00 AM 33.9214 -85.1089 297° West  Level Estimated
Sun 09:17:00 AM 33.9685 -85.2229 297° West  Level Estimated
Sun 09:18:00 AM 34.0155 -85.3370 296° West  Level Estimated
Sun 09:19:00 AM 34.0624 -85.4512 296° West  Level Estimated
Sun 09:20:00 AM 34.1092 -85.5655 296° West  Level Estimated
Sun 09:21:00 AM 34.1558 -85.6800 296° West  Level Estimated
Sun 09:22:00 AM 34.2024 -85.7945 296° West  Level Estimated
Sun 09:23:00 AM 34.2489 -85.9092 296° West  Level Estimated
Sun 09:24:00 AM 34.2952 -86.0241 296° West  Level Estimated
Sun 09:25:00 AM 34.3414 -86.1391 296° West  Level Estimated
Sun 09:26:00 AM 34.3876 -86.2541 296° West  Level Estimated
Sun 09:27:00 AM 34.4336 -86.3694 296° West  Level Estimated
Sun 09:28:00 AM 34.4795 -86.4847 296° West  Level Estimated
Sun 09:29:00 AM 34.5253 -86.6002 296° West  Level Estimated
Sun 09:30:00 AM 34.5710 -86.7158 296° West  Level Estimated
Sun 09:31:00 AM 34.6166 -86.8315 296° West  Level Estimated
Sun 09:32:00 AM 34.6621 -86.9473 296° West  Level Estimated
Sun 09:33:00 AM 34.7075 -87.0633 295° West  Level Estimated
Sun 09:34:00 AM 34.7527 -87.1794 295° West  Level Estimated
Sun 09:35:00 AM 34.7979 -87.2957 295° West  Level Estimated
Sun 09:36:00 AM 34.8429 -87.4120 295° West  Level Estimated
Sun 09:37:00 AM 34.8879 -87.5285 295° West  Level Estimated
Sun 09:38:00 AM 34.9327 -87.6451 295° West  Level Estimated
Sun 09:39:00 AM 34.9774 -87.7619 295° West  Level Estimated
Sun 09:40:00 AM 35.0220 -87.8787 295° West  Level Estimated
Sun 09:41:00 AM 35.0665 -87.9957 295° West  Level Estimated
Sun 09:42:00 AM 35.1108 -88.1128 295° West  Level Estimated
Sun 09:43:00 AM 35.1551 -88.2301 295° West  Level Estimated
Sun 09:44:00 AM 35.1992 -88.3475 295° West  Level Estimated
Sun 09:45:00 AM 35.2433 -88.4650 295° West  Level Estimated
Sun 09:46:00 AM 35.2872 -88.5826 295° West  Level Estimated
Sun 09:47:00 AM 35.3310 -88.7004 295° West  Level Estimated
Sun 09:48:00 AM 35.3747 -88.8183 294° West  Level Estimated
Sun 09:49:00 AM 35.4183 -88.9363 294° West  Level Estimated
Sun 09:50:00 AM 35.4617 -89.0544 294° West  Level Estimated
Sun 09:51:00 AM 35.5051 -89.1727 294° West  Level Estimated
Sun 09:52:00 AM 35.5483 -89.2911 294° West  Level Estimated
Sun 09:53:00 AM 35.5914 -89.4096 294° West  Level Estimated
Sun 09:54:00 AM 35.6344 -89.5283 294° West  Level Estimated
Sun 09:55:00 AM 35.6773 -89.6471 294° West  Level Estimated
Sun 09:56:00 AM 35.7201 -89.7660 294° West  Level Estimated
Sun 09:57:00 AM 35.7627 -89.8850 294° West  Level Estimated
Sun 09:58:00 AM 35.8052 -90.0042 294° West  Level Estimated
Sun 09:59:00 AM 35.8476 -90.1235 294° West  Level Estimated
Sun 10:00:00 AM 35.8899 -90.2429 294° West  Level Estimated
Sun 10:01:00 AM 35.9321 -90.3624 294° West  Level Estimated
Sun 10:02:00 AM 35.9742 -90.4821 294° West  Level Estimated
Sun 10:03:00 AM 36.0161 -90.6019 293° West  Level Estimated
Sun 10:04:00 AM 36.0579 -90.7218 293° West  Level Estimated
Sun 10:05:00 AM 36.0996 -90.8419 293° West  Level Estimated
Sun 10:06:00 AM 36.1412 -90.9621 293° West  Level Estimated
Sun 10:07:00 AM 36.1827 -91.0824 293° West  Level Estimated
Sun 10:08:00 AM 36.2240 -91.2028 293° West  Level Estimated
Sun 10:09:00 AM 36.2652 -91.3234 293° West  Level Estimated
Sun 10:10:00 AM 36.3063 -91.4441 293° West  Level Estimated
Sun 10:11:00 AM 36.3473 -91.5649 293° West  Level Estimated
Sun 10:12:00 AM 36.3881 -91.6859 293° West  Level Estimated
Sun 10:13:00 AM 36.4289 -91.8069 293° West  Level Estimated
Sun 10:14:00 AM 36.4695 -91.9281 293° West  Level Estimated
Sun 10:15:00 AM 36.5100 -92.0495 293° West  Level Estimated
Sun 10:16:00 AM 36.5503 -92.1709 293° West  Level Estimated
Sun 10:17:00 AM 36.5906 -92.2925 292° West  Level Estimated
Sun 10:18:00 AM 36.6307 -92.4142 292° West  Level Estimated
Sun 10:19:00 AM 36.6707 -92.5360 292° West  Level Estimated
Sun 10:20:00 AM 36.7106 -92.6580 292° West  Level Estimated
Sun 10:21:00 AM 36.7503 -92.7801 292° West  Level Estimated
Sun 10:22:00 AM 36.7899 -92.9023 292° West  Level Estimated
Sun 10:23:00 AM 36.8294 -93.0246 292° West  Level Estimated
Sun 10:24:00 AM 36.8688 -93.1471 292° West  Level Estimated
Sun 10:25:00 AM 36.9080 -93.2697 292° West  Level Estimated
Sun 10:26:00 AM 36.9471 -93.3924 292° West  Level Estimated
Sun 10:27:00 AM 36.9861 -93.5152 292° West  Level Estimated
Sun 10:28:00 AM 37.0250 -93.6382 292° West  Level Estimated
Sun 10:29:00 AM 37.0637 -93.7613 292° West  Level Estimated
Sun 10:30:00 AM 37.1023 -93.8845 291° West  Level Estimated
Sun 10:31:00 AM 37.1408 -94.0079 291° West  Level Estimated
Sun 10:32:00 AM 37.1792 -94.1313 291° West  Level Estimated
Sun 10:33:00 AM 37.2174 -94.2550 291° West  Level Estimated
Sun 10:34:00 AM 37.2555 -94.3787 291° West  Level Estimated
Sun 10:35:00 AM 37.2935 -94.5025 291° West  Level Estimated
Sun 10:36:00 AM 37.3313 -94.6265 291° West  Level Estimated
Sun 10:37:00 AM 37.3690 -94.7506 291° West  Level Estimated
Sun 10:38:00 AM 37.4066 -94.8748 291° West  Level Estimated
Sun 10:39:00 AM 37.4440 -94.9992 291° West  Level Estimated
Sun 10:40:00 AM 37.4814 -95.1236 291° West  Level Estimated
Sun 10:41:00 AM 37.5186 -95.2482 291° West  Level Estimated
Sun 10:42:00 AM 37.5556 -95.3729 291° West  Level Estimated
Sun 10:43:00 AM 37.5925 -95.4978 291° West  Level Estimated
Sun 10:44:00 AM 37.6293 -95.6227 290° West  Level Estimated
Sun 10:45:00 AM 37.6660 -95.7478 290° West  Level Estimated
Sun 10:46:00 AM 37.7025 -95.8730 290° West  Level Estimated
Sun 10:47:00 AM 37.7389 -95.9984 290° West  Level Estimated
Sun 10:48:00 AM 37.7752 -96.1238 290° West  Level Estimated
Sun 10:49:00 AM 37.8113 -96.2494 290° West  Level Estimated
Sun 10:50:00 AM 37.8473 -96.3751 290° West  Level Estimated
Sun 10:51:00 AM 37.8832 -96.5010 290° West  Level Estimated
Sun 10:52:00 AM 37.9189 -96.6269 290° West  Level Estimated
Sun 10:53:00 AM 37.9545 -96.7530 290° West  Level Estimated
Sun 10:54:00 AM 37.9900 -96.8792 290° West  Level Estimated
Sun 10:55:00 AM 38.0253 -97.0055 290° West  Level Estimated
Sun 10:56:00 AM 38.0605 -97.1319 290° West  Level Estimated
Sun 10:57:00 AM 38.0955 -97.2585 289° West  Level Estimated
Sun 10:58:00 AM 38.1305 -97.3852 289° West  Level Estimated
Sun 10:59:00 AM 38.1652 -97.5120 289° West  Level Estimated
Sun 11:00:00 AM 38.1999 -97.6389 289° West  Level Estimated
Sun 11:01:00 AM 38.2344 -97.7659 289° West  Level Estimated
Sun 11:02:00 AM 38.2688 -97.8931 289° West  Level Estimated
Sun 11:03:00 AM 38.3030 -98.0204 289° West  Level Estimated
Sun 11:04:00 AM 38.3371 -98.1478 289° West  Level Estimated
Sun 11:05:00 AM 38.3711 -98.2753 289° West  Level Estimated
Sun 11:06:00 AM 38.4049 -98.4029 289° West  Level Estimated
Sun 11:07:00 AM 38.4386 -98.5307 289° West  Level Estimated
Sun 11:08:00 AM 38.4721 -98.6586 289° West  Level Estimated
Sun 11:09:00 AM 38.5055 -98.7866 288° West  Level Estimated
Sun 11:10:00 AM 38.5388 -98.9147 288° West  Level Estimated
Sun 11:11:00 AM 38.5719 -99.0429 288° West  Level Estimated
Sun 11:12:00 AM 38.6049 -99.1713 288° West  Level Estimated
Sun 11:13:00 AM 38.6377 -99.2998 288° West  Level Estimated
Sun 11:14:00 AM 38.6704 -99.4284 288° West  Level Estimated
Sun 11:15:00 AM 38.7030 -99.5571 288° West  Level Estimated
Sun 11:16:00 AM 38.7354 -99.6859 288° West  Level Estimated
Sun 11:17:00 AM 38.7677 -99.8148 288° West  Level Estimated
Sun 11:18:00 AM 38.7999 -99.9439 288° West  Level Estimated
Sun 11:19:00 AM 38.8318 -100.0731 288° West  Level Estimated
Sun 11:20:00 AM 38.8637 -100.2023 288° West  Level Estimated
Sun 11:21:00 AM 38.8954 -100.3318 288° West  Level Estimated
Sun 11:22:00 AM 38.9270 -100.4613 287° West  Level Estimated
Sun 11:23:00 AM 38.9584 -100.5909 287° West  Level Estimated
Sun 11:24:00 AM 38.9897 -100.7207 287° West  Level Estimated
Sun 11:25:00 AM 39.0208 -100.8505 287° West  Level Estimated
Sun 11:26:00 AM 39.0518 -100.9805 287° West  Level Estimated
Sun 11:27:00 AM 39.0827 -101.1106 287° West  Level Estimated
Sun 11:28:00 AM 39.1134 -101.2408 287° West  Level Estimated
Sun 11:29:00 AM 39.1439 -101.3711 287° West  Level Estimated
Sun 11:30:00 AM 39.1744 -101.5016 287° West  Level Estimated
Sun 11:31:00 AM 39.2046 -101.6321 287° West  Level Estimated
Sun 11:32:00 AM 39.2347 -101.7628 287° West  Level Estimated
Sun 11:33:00 AM 39.2647 -101.8935 287° West  Level Estimated
Sun 11:34:00 AM 39.2946 -102.0244 286° West  Level Estimated
Sun 11:35:00 AM 39.3242 -102.1554 286° West  Level Estimated
Sun 11:36:00 AM 39.3538 -102.2865 286° West  Level Estimated
Sun 11:37:00 AM 39.3832 -102.4177 286° West  Level Estimated
Sun 11:38:00 AM 39.4124 -102.5490 286° West  Level Estimated
Sun 11:39:00 AM 39.4415 -102.6805 286° West  Level Estimated
Sun 11:40:00 AM 39.4705 -102.8120 286° West  Level Estimated
Sun 11:41:00 AM 39.4993 -102.9437 286° West  Level Estimated
Sun 11:42:00 AM 39.5279 -103.0754 286° West  Level Estimated
Sun 11:43:00 AM 39.5564 -103.2073 286° West  Level Estimated
Sun 11:44:00 AM 39.5848 -103.3393 286° West  Level Estimated
Sun 11:45:00 AM 39.6130 -103.4714 286° West  Level Estimated
Sun 11:46:00 AM 39.6410 -103.6036 285° West  Level Estimated
Sun 11:47:00 AM 39.6689 -103.7359 285° West  Level Estimated
Sun 11:48:00 AM 39.6967 -103.8683 285° West  Level Estimated
Sun 11:49:00 AM 39.7243 -104.0008 285° West  Level Estimated
Sun 11:50:00 AM 39.7517 -104.1334 285° West  Level Estimated
Sun 11:51:00 AM 39.7790 -104.2661 285° West  Level Estimated
Sun 11:52:00 AM 39.8062 -104.3989 285° West  Level Estimated
Sun 11:53:00 AM 39.8332 -104.5319 285° West  Level Estimated
Sun 11:54:00 AM 39.8600 -104.6649 285° West  Level Estimated
Sun 11:55:00 AM 39.8617 -104.6732 285° West  Level Estimated
Sun 11:56:00 AM 39.8617 -104.6732 142° Southeast  Level Estimated
Sun 11:57:00 AM 39.8617 -104.6732 142° Southeast  Level Estimated
Sun 11:58:00 AM 39.8617 -104.6732 142° Southeast  Level Estimated
Sun 11:59:00 AM 39.8617 -104.6732 142° Southeast  Level Estimated

Login

Don't have an account? Register now (free) for customized features, flight alerts, and more!